sensor_id;sensor_type;location;lat;lon;timestamp;P1;durP1;ratioP1;P2;durP2;ratioP2
31692;SDS011;37436;53.230;6.614;2023-05-07T00:02:18;35.33;;;17.45;;
31692;SDS011;37436;53.230;6.614;2023-05-07T00:04:50;33.88;;;17.40;;
31692;SDS011;37436;53.230;6.614;2023-05-07T00:07:21;37.33;;;17.88;;
31692;SDS011;37436;53.230;6.614;2023-05-07T00:09:48;39.88;;;18.67;;
31692;SDS011;37436;53.230;6.614;2023-05-07T00:12:15;38.65;;;18.65;;
31692;SDS011;37436;53.230;6.614;2023-05-07T00:14:42;37.67;;;17.98;;
31692;SDS011;37436;53.230;6.614;2023-05-07T00:17:11;36.22;;;18.20;;
31692;SDS011;37436;53.230;6.614;2023-05-07T00:19:38;37.03;;;18.23;;
31692;SDS011;37436;53.230;6.614;2023-05-07T00:22:05;36.28;;;18.55;;
31692;SDS011;37436;53.230;6.614;2023-05-07T00:24:31;39.38;;;18.17;;
31692;SDS011;37436;53.230;6.614;2023-05-07T00:27:00;34.10;;;17.25;;
31692;SDS011;37436;53.230;6.614;2023-05-07T00:29:27;36.30;;;18.08;;
31692;SDS011;37436;53.230;6.614;2023-05-07T00:31:56;32.10;;;17.63;;
31692;SDS011;37436;53.230;6.614;2023-05-07T00:34:22;42.10;;;18.38;;
31692;SDS011;37436;53.230;6.614;2023-05-07T00:36:55;40.92;;;19.65;;
31692;SDS011;37436;53.230;6.614;2023-05-07T00:39:21;34.20;;;18.60;;
31692;SDS011;37436;53.230;6.614;2023-05-07T00:41:47;40.70;;;20.35;;
31692;SDS011;37436;53.230;6.614;2023-05-07T00:44:13;40.95;;;19.42;;
31692;SDS011;37436;53.230;6.614;2023-05-07T00:46:40;41.85;;;20.75;;
31692;SDS011;37436;53.230;6.614;2023-05-07T00:49:07;38.10;;;19.08;;
31692;SDS011;37436;53.230;6.614;2023-05-07T00:51:33;39.45;;;18.80;;
31692;SDS011;37436;53.230;6.614;2023-05-07T00:54:00;37.85;;;19.83;;
31692;SDS011;37436;53.230;6.614;2023-05-07T00:56:26;37.15;;;20.45;;
31692;SDS011;37436;53.230;6.614;2023-05-07T00:58:52;45.58;;;20.30;;
31692;SDS011;37436;53.230;6.614;2023-05-07T01:01:19;45.72;;;21.58;;
31692;SDS011;37436;53.230;6.614;2023-05-07T01:03:45;44.20;;;19.63;;
31692;SDS011;37436;53.230;6.614;2023-05-07T01:06:11;43.13;;;20.60;;
31692;SDS011;37436;53.230;6.614;2023-05-07T01:08:41;39.22;;;20.08;;
31692;SDS011;37436;53.230;6.614;2023-05-07T01:11:09;41.78;;;21.33;;
31692;SDS011;37436;53.230;6.614;2023-05-07T01:13:36;47.20;;;22.02;;
31692;SDS011;37436;53.230;6.614;2023-05-07T01:16:06;46.25;;;23.17;;
31692;SDS011;37436;53.230;6.614;2023-05-07T01:18:33;42.65;;;22.48;;
31692;SDS011;37436;53.230;6.614;2023-05-07T01:20:59;44.70;;;19.60;;
31692;SDS011;37436;53.230;6.614;2023-05-07T01:23:27;47.80;;;23.48;;
31692;SDS011;37436;53.230;6.614;2023-05-07T01:25:53;49.08;;;23.10;;
31692;SDS011;37436;53.230;6.614;2023-05-07T01:28:27;51.97;;;24.45;;
31692;SDS011;37436;53.230;6.614;2023-05-07T01:30:54;47.22;;;23.55;;
31692;SDS011;37436;53.230;6.614;2023-05-07T01:33:21;50.05;;;24.92;;
31692;SDS011;37436;53.230;6.614;2023-05-07T01:35:49;49.40;;;22.75;;
31692;SDS011;37436;53.230;6.614;2023-05-07T01:38:21;41.63;;;21.67;;
31692;SDS011;37436;53.230;6.614;2023-05-07T01:40:54;50.25;;;24.83;;
31692;SDS011;37436;53.230;6.614;2023-05-07T01:43:24;45.83;;;21.83;;
31692;SDS011;37436;53.230;6.614;2023-05-07T01:45:51;41.92;;;22.65;;
31692;SDS011;37436;53.230;6.614;2023-05-07T01:48:18;44.22;;;22.10;;
31692;SDS011;37436;53.230;6.614;2023-05-07T01:50:45;52.75;;;24.08;;
31692;SDS011;37436;53.230;6.614;2023-05-07T01:53:26;45.08;;;20.67;;
31692;SDS011;37436;53.230;6.614;2023-05-07T01:55:53;51.22;;;22.10;;
31692;SDS011;37436;53.230;6.614;2023-05-07T01:58:21;55.50;;;23.52;;
31692;SDS011;37436;53.230;6.614;2023-05-07T02:00:47;53.03;;;22.00;;
31692;SDS011;37436;53.230;6.614;2023-05-07T02:03:14;52.13;;;23.27;;
31692;SDS011;37436;53.230;6.614;2023-05-07T02:05:45;51.13;;;23.35;;
31692;SDS011;37436;53.230;6.614;2023-05-07T02:08:11;46.35;;;21.83;;
31692;SDS011;37436;53.230;6.614;2023-05-07T02:10:38;52.72;;;22.95;;
31692;SDS011;37436;53.230;6.614;2023-05-07T02:13:04;55.70;;;23.83;;
31692;SDS011;37436;53.230;6.614;2023-05-07T02:15:34;53.33;;;24.10;;
31692;SDS011;37436;53.230;6.614;2023-05-07T02:18:04;57.50;;;23.98;;
31692;SDS011;37436;53.230;6.614;2023-05-07T02:20:31;51.30;;;23.75;;
31692;SDS011;37436;53.230;6.614;2023-05-07T02:23:04;59.25;;;25.67;;
31692;SDS011;37436;53.230;6.614;2023-05-07T02:25:33;54.38;;;24.83;;
31692;SDS011;37436;53.230;6.614;2023-05-07T02:28:00;61.10;;;25.40;;
31692;SDS011;37436;53.230;6.614;2023-05-07T02:30:27;64.03;;;27.10;;
31692;SDS011;37436;53.230;6.614;2023-05-07T02:32:53;59.80;;;27.92;;
31692;SDS011;37436;53.230;6.614;2023-05-07T02:35:34;63.78;;;27.73;;
31692;SDS011;37436;53.230;6.614;2023-05-07T02:38:08;63.35;;;29.88;;
31692;SDS011;37436;53.230;6.614;2023-05-07T02:40:36;65.32;;;29.50;;
31692;SDS011;37436;53.230;6.614;2023-05-07T02:43:05;65.30;;;28.98;;
31692;SDS011;37436;53.230;6.614;2023-05-07T02:45:34;65.05;;;28.10;;
31692;SDS011;37436;53.230;6.614;2023-05-07T02:48:01;66.05;;;28.30;;
31692;SDS011;37436;53.230;6.614;2023-05-07T02:50:28;62.38;;;26.73;;
31692;SDS011;37436;53.230;6.614;2023-05-07T02:52:55;62.78;;;24.10;;
31692;SDS011;37436;53.230;6.614;2023-05-07T02:55:21;71.57;;;26.73;;
31692;SDS011;37436;53.230;6.614;2023-05-07T02:57:47;59.75;;;26.00;;
31692;SDS011;37436;53.230;6.614;2023-05-07T03:00:16;59.08;;;23.67;;
31692;SDS011;37436;53.230;6.614;2023-05-07T03:02:43;47.67;;;20.83;;
31692;SDS011;37436;53.230;6.614;2023-05-07T03:05:09;57.05;;;25.77;;
31692;SDS011;37436;53.230;6.614;2023-05-07T03:07:36;57.58;;;26.52;;
31692;SDS011;37436;53.230;6.614;2023-05-07T03:10:06;55.22;;;24.75;;
31692;SDS011;37436;53.230;6.614;2023-05-07T03:12:32;56.92;;;23.90;;
31692;SDS011;37436;53.230;6.614;2023-05-07T03:14:58;64.65;;;26.77;;
31692;SDS011;37436;53.230;6.614;2023-05-07T03:17:24;71.00;;;28.70;;
31692;SDS011;37436;53.230;6.614;2023-05-07T03:19:53;58.58;;;25.83;;
31692;SDS011;37436;53.230;6.614;2023-05-07T03:22:19;61.15;;;27.52;;
31692;SDS011;37436;53.230;6.614;2023-05-07T03:24:45;64.45;;;24.75;;
31692;SDS011;37436;53.230;6.614;2023-05-07T03:27:12;63.33;;;24.42;;
31692;SDS011;37436;53.230;6.614;2023-05-07T03:29:38;55.70;;;25.15;;
31692;SDS011;37436;53.230;6.614;2023-05-07T03:32:05;62.28;;;25.52;;
31692;SDS011;37436;53.230;6.614;2023-05-07T03:34:31;64.88;;;22.95;;
31692;SDS011;37436;53.230;6.614;2023-05-07T03:36:57;63.33;;;26.58;;
31692;SDS011;37436;53.230;6.614;2023-05-07T03:39:23;60.33;;;25.38;;
31692;SDS011;37436;53.230;6.614;2023-05-07T03:41:50;52.42;;;22.85;;
31692;SDS011;37436;53.230;6.614;2023-05-07T03:44:20;55.90;;;23.25;;
31692;SDS011;37436;53.230;6.614;2023-05-07T03:46:46;65.43;;;24.95;;
31692;SDS011;37436;53.230;6.614;2023-05-07T03:49:13;56.22;;;23.15;;
31692;SDS011;37436;53.230;6.614;2023-05-07T03:51:39;61.15;;;24.20;;
31692;SDS011;37436;53.230;6.614;2023-05-07T03:54:05;61.20;;;25.95;;
31692;SDS011;37436;53.230;6.614;2023-05-07T03:56:31;69.43;;;26.65;;
31692;SDS011;37436;53.230;6.614;2023-05-07T03:58:57;62.65;;;27.17;;
31692;SDS011;37436;53.230;6.614;2023-05-07T04:01:23;57.75;;;24.90;;
31692;SDS011;37436;53.230;6.614;2023-05-07T04:03:50;69.70;;;26.73;;
31692;SDS011;37436;53.230;6.614;2023-05-07T04:06:26;69.10;;;28.58;;
31692;SDS011;37436;53.230;6.614;2023-05-07T04:08:52;66.93;;;26.88;;
31692;SDS011;37436;53.230;6.614;2023-05-07T04:11:18;77.28;;;31.23;;
31692;SDS011;37436;53.230;6.614;2023-05-07T04:13:45;64.10;;;26.65;;
31692;SDS011;37436;53.230;6.614;2023-05-07T04:16:13;61.70;;;25.75;;
31692;SDS011;37436;53.230;6.614;2023-05-07T04:18:39;67.18;;;28.75;;
31692;SDS011;37436;53.230;6.614;2023-05-07T04:21:15;63.85;;;26.88;;
31692;SDS011;37436;53.230;6.614;2023-05-07T04:23:42;65.10;;;25.25;;
31692;SDS011;37436;53.230;6.614;2023-05-07T04:26:13;57.38;;;25.88;;
31692;SDS011;37436;53.230;6.614;2023-05-07T04:28:39;66.10;;;26.02;;
31692;SDS011;37436;53.230;6.614;2023-05-07T04:31:06;49.85;;;25.45;;
31692;SDS011;37436;53.230;6.614;2023-05-07T04:33:35;72.53;;;27.20;;
31692;SDS011;37436;53.230;6.614;2023-05-07T04:36:02;63.17;;;26.23;;
31692;SDS011;37436;53.230;6.614;2023-05-07T04:38:30;57.00;;;25.10;;
31692;SDS011;37436;53.230;6.614;2023-05-07T04:41:06;58.63;;;23.80;;
31692;SDS011;37436;53.230;6.614;2023-05-07T04:43:32;60.80;;;26.05;;
31692;SDS011;37436;53.230;6.614;2023-05-07T04:48:45;50.15;;;22.52;;
31692;SDS011;37436;53.230;6.614;2023-05-07T04:51:14;60.08;;;23.83;;
31692;SDS011;37436;53.230;6.614;2023-05-07T04:53:40;45.63;;;16.75;;
31692;SDS011;37436;53.230;6.614;2023-05-07T04:56:09;58.45;;;21.52;;
31692;SDS011;37436;53.230;6.614;2023-05-07T04:58:36;43.22;;;22.27;;
31692;SDS011;37436;53.230;6.614;2023-05-07T05:01:02;47.42;;;21.75;;
31692;SDS011;37436;53.230;6.614;2023-05-07T05:03:29;51.70;;;21.63;;
31692;SDS011;37436;53.230;6.614;2023-05-07T05:05:55;54.35;;;22.35;;
31692;SDS011;37436;53.230;6.614;2023-05-07T05:08:24;46.47;;;20.92;;
31692;SDS011;37436;53.230;6.614;2023-05-07T05:10:50;43.53;;;20.67;;
31692;SDS011;37436;53.230;6.614;2023-05-07T05:13:17;50.42;;;20.95;;
31692;SDS011;37436;53.230;6.614;2023-05-07T05:15:45;47.83;;;21.77;;
31692;SDS011;37436;53.230;6.614;2023-05-07T05:18:11;49.65;;;20.40;;
31692;SDS011;37436;53.230;6.614;2023-05-07T05:20:37;48.28;;;21.33;;
31692;SDS011;37436;53.230;6.614;2023-05-07T05:23:03;42.17;;;19.85;;
31692;SDS011;37436;53.230;6.614;2023-05-07T05:25:30;40.80;;;18.75;;
31692;SDS011;37436;53.230;6.614;2023-05-07T05:27:59;43.80;;;18.65;;
31692;SDS011;37436;53.230;6.614;2023-05-07T05:30:26;45.03;;;20.15;;
31692;SDS011;37436;53.230;6.614;2023-05-07T05:32:52;41.65;;;19.80;;
31692;SDS011;37436;53.230;6.614;2023-05-07T05:35:19;48.55;;;20.90;;
31692;SDS011;37436;53.230;6.614;2023-05-07T05:37:45;41.25;;;21.27;;
31692;SDS011;37436;53.230;6.614;2023-05-07T05:40:17;42.22;;;22.05;;
31692;SDS011;37436;53.230;6.614;2023-05-07T05:42:43;41.05;;;19.60;;
31692;SDS011;37436;53.230;6.614;2023-05-07T05:45:10;44.85;;;21.00;;
31692;SDS011;37436;53.230;6.614;2023-05-07T05:47:39;41.45;;;19.60;;
31692;SDS011;37436;53.230;6.614;2023-05-07T05:50:06;46.03;;;21.60;;
31692;SDS011;37436;53.230;6.614;2023-05-07T05:52:32;38.13;;;18.00;;
31692;SDS011;37436;53.230;6.614;2023-05-07T05:54:58;40.10;;;20.55;;
31692;SDS011;37436;53.230;6.614;2023-05-07T05:57:24;45.80;;;21.75;;
31692;SDS011;37436;53.230;6.614;2023-05-07T05:59:51;38.00;;;19.17;;
31692;SDS011;37436;53.230;6.614;2023-05-07T06:02:23;41.30;;;19.95;;
31692;SDS011;37436;53.230;6.614;2023-05-07T06:04:49;39.65;;;20.70;;
31692;SDS011;37436;53.230;6.614;2023-05-07T06:07:15;52.83;;;22.58;;
31692;SDS011;37436;53.230;6.614;2023-05-07T06:09:43;42.40;;;21.23;;
31692;SDS011;37436;53.230;6.614;2023-05-07T06:12:09;46.72;;;20.92;;
31692;SDS011;37436;53.230;6.614;2023-05-07T06:14:38;35.00;;;19.20;;
31692;SDS011;37436;53.230;6.614;2023-05-07T06:17:06;41.70;;;20.08;;
31692;SDS011;37436;53.230;6.614;2023-05-07T06:19:32;41.75;;;20.73;;
31692;SDS011;37436;53.230;6.614;2023-05-07T06:21:58;48.20;;;20.83;;
31692;SDS011;37436;53.230;6.614;2023-05-07T06:24:26;46.83;;;24.30;;
31692;SDS011;37436;53.230;6.614;2023-05-07T06:26:53;52.65;;;24.98;;
31692;SDS011;37436;53.230;6.614;2023-05-07T06:29:19;48.53;;;23.35;;
31692;SDS011;37436;53.230;6.614;2023-05-07T06:31:45;59.85;;;28.30;;
31692;SDS011;37436;53.230;6.614;2023-05-07T06:34:11;49.13;;;24.85;;
31692;SDS011;37436;53.230;6.614;2023-05-07T06:36:41;62.50;;;26.50;;
31692;SDS011;37436;53.230;6.614;2023-05-07T06:39:07;46.78;;;23.05;;
31692;SDS011;37436;53.230;6.614;2023-05-07T06:41:33;62.88;;;27.30;;
31692;SDS011;37436;53.230;6.614;2023-05-07T06:44:01;55.55;;;23.17;;
31692;SDS011;37436;53.230;6.614;2023-05-07T06:46:30;44.72;;;22.60;;
31692;SDS011;37436;53.230;6.614;2023-05-07T06:49:03;46.92;;;23.73;;
31692;SDS011;37436;53.230;6.614;2023-05-07T06:51:29;43.88;;;21.52;;
31692;SDS011;37436;53.230;6.614;2023-05-07T06:53:55;39.40;;;20.60;;
31692;SDS011;37436;53.230;6.614;2023-05-07T06:56:22;41.92;;;19.55;;
31692;SDS011;37436;53.230;6.614;2023-05-07T06:58:48;37.22;;;18.13;;
31692;SDS011;37436;53.230;6.614;2023-05-07T07:01:18;36.05;;;19.13;;
31692;SDS011;37436;53.230;6.614;2023-05-07T07:03:45;35.63;;;19.55;;
31692;SDS011;37436;53.230;6.614;2023-05-07T07:06:14;39.88;;;19.70;;
31692;SDS011;37436;53.230;6.614;2023-05-07T07:08:40;36.45;;;18.90;;
31692;SDS011;37436;53.230;6.614;2023-05-07T07:11:07;33.65;;;17.42;;
31692;SDS011;37436;53.230;6.614;2023-05-07T07:13:37;36.13;;;18.10;;
31692;SDS011;37436;53.230;6.614;2023-05-07T07:16:08;35.78;;;19.10;;
31692;SDS011;37436;53.230;6.614;2023-05-07T07:18:34;37.25;;;17.25;;
31692;SDS011;37436;53.230;6.614;2023-05-07T07:21:11;43.83;;;20.92;;
31692;SDS011;37436;53.230;6.614;2023-05-07T07:23:38;36.03;;;17.48;;
31692;SDS011;37436;53.230;6.614;2023-05-07T07:26:13;47.15;;;18.73;;
31692;SDS011;37436;53.230;6.614;2023-05-07T07:28:43;38.42;;;19.95;;
31692;SDS011;37436;53.230;6.614;2023-05-07T07:31:10;39.78;;;17.25;;
31692;SDS011;37436;53.230;6.614;2023-05-07T07:33:36;34.97;;;17.98;;
31692;SDS011;37436;53.230;6.614;2023-05-07T07:36:06;39.30;;;18.25;;
31692;SDS011;37436;53.230;6.614;2023-05-07T07:38:32;39.38;;;19.20;;
31692;SDS011;37436;53.230;6.614;2023-05-07T07:41:02;39.97;;;19.67;;
31692;SDS011;37436;53.230;6.614;2023-05-07T07:43:28;41.38;;;19.00;;
31692;SDS011;37436;53.230;6.614;2023-05-07T07:45:54;37.72;;;18.25;;
31692;SDS011;37436;53.230;6.614;2023-05-07T07:48:31;36.30;;;18.33;;
31692;SDS011;37436;53.230;6.614;2023-05-07T07:51:00;41.28;;;18.20;;
31692;SDS011;37436;53.230;6.614;2023-05-07T07:53:32;38.40;;;19.77;;
31692;SDS011;37436;53.230;6.614;2023-05-07T07:56:02;38.33;;;20.00;;
31692;SDS011;37436;53.230;6.614;2023-05-07T07:58:31;39.97;;;17.63;;
31692;SDS011;37436;53.230;6.614;2023-05-07T08:01:06;46.35;;;19.67;;
31692;SDS011;37436;53.230;6.614;2023-05-07T08:03:35;44.47;;;19.70;;
31692;SDS011;37436;53.230;6.614;2023-05-07T08:06:07;37.72;;;18.88;;
31692;SDS011;37436;53.230;6.614;2023-05-07T08:08:33;38.20;;;18.40;;
31692;SDS011;37436;53.230;6.614;2023-05-07T08:11:07;36.58;;;18.15;;
31692;SDS011;37436;53.230;6.614;2023-05-07T08:13:34;38.38;;;18.75;;
31692;SDS011;37436;53.230;6.614;2023-05-07T08:16:00;35.17;;;17.98;;
31692;SDS011;37436;53.230;6.614;2023-05-07T08:18:27;35.97;;;17.48;;
31692;SDS011;37436;53.230;6.614;2023-05-07T08:20:54;36.20;;;15.70;;
31692;SDS011;37436;53.230;6.614;2023-05-07T08:23:22;35.80;;;17.08;;
31692;SDS011;37436;53.230;6.614;2023-05-07T08:25:49;36.83;;;19.15;;
31692;SDS011;37436;53.230;6.614;2023-05-07T08:28:16;28.02;;;14.43;;
31692;SDS011;37436;53.230;6.614;2023-05-07T08:30:43;30.58;;;16.70;;
31692;SDS011;37436;53.230;6.614;2023-05-07T08:33:12;35.30;;;18.45;;
31692;SDS011;37436;53.230;6.614;2023-05-07T08:35:38;35.05;;;18.38;;
31692;SDS011;37436;53.230;6.614;2023-05-07T08:38:19;32.15;;;17.50;;
31692;SDS011;37436;53.230;6.614;2023-05-07T08:40:45;34.80;;;17.40;;
31692;SDS011;37436;53.230;6.614;2023-05-07T08:43:12;32.58;;;16.23;;
31692;SDS011;37436;53.230;6.614;2023-05-07T08:45:40;33.38;;;17.48;;
31692;SDS011;37436;53.230;6.614;2023-05-07T08:48:15;32.42;;;17.98;;
31692;SDS011;37436;53.230;6.614;2023-05-07T08:50:41;32.10;;;16.77;;
31692;SDS011;37436;53.230;6.614;2023-05-07T08:53:07;34.28;;;16.83;;
31692;SDS011;37436;53.230;6.614;2023-05-07T08:55:33;31.27;;;17.02;;
31692;SDS011;37436;53.230;6.614;2023-05-07T08:58:00;32.10;;;15.93;;
31692;SDS011;37436;53.230;6.614;2023-05-07T09:00:27;35.72;;;16.60;;
31692;SDS011;37436;53.230;6.614;2023-05-07T09:02:53;31.60;;;16.48;;
31692;SDS011;37436;53.230;6.614;2023-05-07T09:05:19;30.23;;;16.83;;
31692;SDS011;37436;53.230;6.614;2023-05-07T09:07:46;37.13;;;18.42;;
31692;SDS011;37436;53.230;6.614;2023-05-07T09:10:12;33.03;;;16.80;;
31692;SDS011;37436;53.230;6.614;2023-05-07T09:12:39;31.85;;;16.55;;
31692;SDS011;37436;53.230;6.614;2023-05-07T09:15:07;33.33;;;17.42;;
31692;SDS011;37436;53.230;6.614;2023-05-07T09:17:39;37.85;;;17.60;;
31692;SDS011;37436;53.230;6.614;2023-05-07T09:20:07;39.47;;;17.73;;
31692;SDS011;37436;53.230;6.614;2023-05-07T09:22:35;34.88;;;18.70;;
31692;SDS011;37436;53.230;6.614;2023-05-07T09:25:02;34.72;;;16.98;;
31692;SDS011;37436;53.230;6.614;2023-05-07T09:27:30;37.13;;;19.90;;
31692;SDS011;37436;53.230;6.614;2023-05-07T09:29:56;28.75;;;16.00;;
31692;SDS011;37436;53.230;6.614;2023-05-07T09:32:24;32.08;;;16.25;;
31692;SDS011;37436;53.230;6.614;2023-05-07T09:34:52;33.00;;;16.70;;
31692;SDS011;37436;53.230;6.614;2023-05-07T09:37:18;34.22;;;17.27;;
31692;SDS011;37436;53.230;6.614;2023-05-07T09:39:45;32.65;;;17.20;;
31692;SDS011;37436;53.230;6.614;2023-05-07T09:42:15;29.25;;;15.90;;
31692;SDS011;37436;53.230;6.614;2023-05-07T09:44:41;25.75;;;15.02;;
31692;SDS011;37436;53.230;6.614;2023-05-07T09:47:09;31.48;;;16.27;;
31692;SDS011;37436;53.230;6.614;2023-05-07T09:49:37;28.10;;;16.25;;
31692;SDS011;37436;53.230;6.614;2023-05-07T09:52:06;28.92;;;15.50;;
31692;SDS011;37436;53.230;6.614;2023-05-07T09:54:34;30.05;;;16.17;;
31692;SDS011;37436;53.230;6.614;2023-05-07T09:57:05;28.42;;;15.30;;
31692;SDS011;37436;53.230;6.614;2023-05-07T09:59:32;30.15;;;17.27;;
31692;SDS011;37436;53.230;6.614;2023-05-07T10:01:59;27.80;;;15.77;;
31692;SDS011;37436;53.230;6.614;2023-05-07T10:04:26;32.25;;;15.52;;
31692;SDS011;37436;53.230;6.614;2023-05-07T10:06:53;27.38;;;14.75;;
31692;SDS011;37436;53.230;6.614;2023-05-07T10:09:20;23.55;;;13.82;;
31692;SDS011;37436;53.230;6.614;2023-05-07T10:11:48;30.15;;;15.43;;
31692;SDS011;37436;53.230;6.614;2023-05-07T10:14:17;25.88;;;15.73;;
31692;SDS011;37436;53.230;6.614;2023-05-07T10:16:45;27.42;;;15.30;;
31692;SDS011;37436;53.230;6.614;2023-05-07T10:19:14;23.60;;;14.20;;
31692;SDS011;37436;53.230;6.614;2023-05-07T10:24:36;26.30;;;14.32;;
31692;SDS011;37436;53.230;6.614;2023-05-07T10:27:07;26.70;;;15.32;;
31692;SDS011;37436;53.230;6.614;2023-05-07T10:35:10;24.10;;;14.35;;
31692;SDS011;37436;53.230;6.614;2023-05-07T10:37:39;22.42;;;13.80;;
31692;SDS011;37436;53.230;6.614;2023-05-07T10:40:19;25.00;;;15.02;;
31692;SDS011;37436;53.230;6.614;2023-05-07T10:42:59;26.50;;;14.38;;
31692;SDS011;37436;53.230;6.614;2023-05-07T10:45:26;23.10;;;13.98;;
31692;SDS011;37436;53.230;6.614;2023-05-07T10:50:37;27.58;;;16.05;;
31692;SDS011;37436;53.230;6.614;2023-05-07T10:58:27;23.65;;;14.18;;
31692;SDS011;37436;53.230;6.614;2023-05-07T11:00:58;22.67;;;13.52;;
31692;SDS011;37436;53.230;6.614;2023-05-07T11:03:25;24.73;;;13.98;;
31692;SDS011;37436;53.230;6.614;2023-05-07T11:08:59;27.50;;;13.80;;
31692;SDS011;37436;53.230;6.614;2023-05-07T11:17:09;19.30;;;12.82;;
31692;SDS011;37436;53.230;6.614;2023-05-07T11:19:51;20.70;;;13.10;;
31692;SDS011;37436;53.230;6.614;2023-05-07T11:25:04;25.23;;;12.50;;
31692;SDS011;37436;53.230;6.614;2023-05-07T11:27:31;16.15;;;10.75;;
31692;SDS011;37436;53.230;6.614;2023-05-07T11:29:57;20.92;;;12.15;;
31692;SDS011;37436;53.230;6.614;2023-05-07T11:32:27;22.38;;;11.90;;
31692;SDS011;37436;53.230;6.614;2023-05-07T11:34:54;20.48;;;11.95;;
31692;SDS011;37436;53.230;6.614;2023-05-07T11:37:22;19.80;;;12.30;;
31692;SDS011;37436;53.230;6.614;2023-05-07T11:39:48;19.63;;;12.23;;
31692;SDS011;37436;53.230;6.614;2023-05-07T11:45:25;17.38;;;11.98;;
31692;SDS011;37436;53.230;6.614;2023-05-07T11:48:02;19.15;;;11.43;;
31692;SDS011;37436;53.230;6.614;2023-05-07T11:50:28;17.75;;;12.30;;
31692;SDS011;37436;53.230;6.614;2023-05-07T11:52:56;17.35;;;11.23;;
31692;SDS011;37436;53.230;6.614;2023-05-07T11:55:23;16.25;;;11.02;;
31692;SDS011;37436;53.230;6.614;2023-05-07T11:57:52;18.05;;;10.85;;
31692;SDS011;37436;53.230;6.614;2023-05-07T12:00:18;18.05;;;11.98;;
31692;SDS011;37436;53.230;6.614;2023-05-07T12:02:47;19.52;;;11.02;;
31692;SDS011;37436;53.230;6.614;2023-05-07T12:05:37;14.93;;;10.40;;
31692;SDS011;37436;53.230;6.614;2023-05-07T12:08:22;16.33;;;10.82;;
31692;SDS011;37436;53.230;6.614;2023-05-07T12:10:51;15.95;;;11.02;;
31692;SDS011;37436;53.230;6.614;2023-05-07T12:13:26;18.02;;;10.45;;
31692;SDS011;37436;53.230;6.614;2023-05-07T12:15:53;13.43;;;9.77;;
31692;SDS011;37436;53.230;6.614;2023-05-07T12:18:23;17.83;;;11.45;;
31692;SDS011;37436;53.230;6.614;2023-05-07T12:20:50;14.13;;;10.60;;
31692;SDS011;37436;53.230;6.614;2023-05-07T12:23:17;15.15;;;10.23;;
31692;SDS011;37436;53.230;6.614;2023-05-07T12:25:43;13.50;;;10.02;;
31692;SDS011;37436;53.230;6.614;2023-05-07T12:28:16;17.73;;;11.43;;
31692;SDS011;37436;53.230;6.614;2023-05-07T12:33:26;14.35;;;10.13;;
31692;SDS011;37436;53.230;6.614;2023-05-07T12:35:54;15.73;;;10.45;;
31692;SDS011;37436;53.230;6.614;2023-05-07T12:38:23;15.07;;;11.35;;
31692;SDS011;37436;53.230;6.614;2023-05-07T12:40:59;17.77;;;11.82;;
31692;SDS011;37436;53.230;6.614;2023-05-07T12:43:28;14.73;;;10.68;;
31692;SDS011;37436;53.230;6.614;2023-05-07T12:45:57;16.17;;;11.73;;
31692;SDS011;37436;53.230;6.614;2023-05-07T12:48:35;16.40;;;11.18;;
31692;SDS011;37436;53.230;6.614;2023-05-07T12:51:05;18.40;;;11.07;;
31692;SDS011;37436;53.230;6.614;2023-05-07T12:53:40;15.52;;;10.68;;
31692;SDS011;37436;53.230;6.614;2023-05-07T12:56:16;14.23;;;11.18;;
31692;SDS011;37436;53.230;6.614;2023-05-07T12:58:43;14.02;;;10.65;;
31692;SDS011;37436;53.230;6.614;2023-05-07T13:01:11;13.20;;;9.18;;
31692;SDS011;37436;53.230;6.614;2023-05-07T13:03:40;16.52;;;11.80;;
31692;SDS011;37436;53.230;6.614;2023-05-07T13:06:09;14.25;;;9.77;;
31692;SDS011;37436;53.230;6.614;2023-05-07T13:08:38;18.05;;;11.88;;
31692;SDS011;37436;53.230;6.614;2023-05-07T13:11:10;18.02;;;12.43;;
31692;SDS011;37436;53.230;6.614;2023-05-07T13:13:40;16.98;;;12.35;;
31692;SDS011;37436;53.230;6.614;2023-05-07T13:16:10;13.60;;;10.73;;
31692;SDS011;37436;53.230;6.614;2023-05-07T13:18:42;15.55;;;11.25;;
31692;SDS011;37436;53.230;6.614;2023-05-07T13:21:13;13.40;;;10.43;;
31692;SDS011;37436;53.230;6.614;2023-05-07T13:23:42;13.55;;;10.80;;
31692;SDS011;37436;53.230;6.614;2023-05-07T13:26:09;15.50;;;11.70;;
31692;SDS011;37436;53.230;6.614;2023-05-07T13:28:43;15.75;;;10.95;;
31692;SDS011;37436;53.230;6.614;2023-05-07T13:31:09;15.43;;;11.15;;
31692;SDS011;37436;53.230;6.614;2023-05-07T13:33:37;12.75;;;10.38;;
31692;SDS011;37436;53.230;6.614;2023-05-07T13:36:15;15.98;;;10.60;;
31692;SDS011;37436;53.230;6.614;2023-05-07T13:38:41;15.60;;;11.68;;
31692;SDS011;37436;53.230;6.614;2023-05-07T13:41:16;15.35;;;10.43;;
31692;SDS011;37436;53.230;6.614;2023-05-07T13:43:42;15.18;;;11.40;;
31692;SDS011;37436;53.230;6.614;2023-05-07T13:46:09;13.35;;;10.48;;
31692;SDS011;37436;53.230;6.614;2023-05-07T13:48:35;11.32;;;9.43;;
31692;SDS011;37436;53.230;6.614;2023-05-07T13:51:01;12.68;;;9.68;;
31692;SDS011;37436;53.230;6.614;2023-05-07T13:53:30;11.75;;;9.65;;
31692;SDS011;37436;53.230;6.614;2023-05-07T13:56:00;14.00;;;9.93;;
31692;SDS011;37436;53.230;6.614;2023-05-07T13:58:26;11.63;;;9.25;;
31692;SDS011;37436;53.230;6.614;2023-05-07T14:01:10;13.70;;;10.32;;
31692;SDS011;37436;53.230;6.614;2023-05-07T14:03:36;16.92;;;10.80;;
31692;SDS011;37436;53.230;6.614;2023-05-07T14:06:05;12.90;;;10.10;;
31692;SDS011;37436;53.230;6.614;2023-05-07T14:08:32;13.48;;;9.65;;
31692;SDS011;37436;53.230;6.614;2023-05-07T14:10:58;13.95;;;9.43;;
31692;SDS011;37436;53.230;6.614;2023-05-07T14:13:26;12.93;;;9.82;;
31692;SDS011;37436;53.230;6.614;2023-05-07T14:18:35;11.75;;;9.23;;
31692;SDS011;37436;53.230;6.614;2023-05-07T14:21:04;10.65;;;9.02;;
31692;SDS011;37436;53.230;6.614;2023-05-07T14:23:31;10.75;;;9.23;;
31692;SDS011;37436;53.230;6.614;2023-05-07T14:25:58;11.38;;;9.35;;
31692;SDS011;37436;53.230;6.614;2023-05-07T14:28:24;11.57;;;8.70;;
31692;SDS011;37436;53.230;6.614;2023-05-07T14:30:51;14.88;;;8.73;;
31692;SDS011;37436;53.230;6.614;2023-05-07T14:33:23;11.93;;;9.38;;
31692;SDS011;37436;53.230;6.614;2023-05-07T14:35:50;11.25;;;9.18;;
31692;SDS011;37436;53.230;6.614;2023-05-07T14:38:18;11.38;;;8.43;;
31692;SDS011;37436;53.230;6.614;2023-05-07T14:40:44;12.98;;;9.13;;
31692;SDS011;37436;53.230;6.614;2023-05-07T14:43:11;19.15;;;9.00;;
31692;SDS011;37436;53.230;6.614;2023-05-07T14:45:38;15.77;;;9.43;;
31692;SDS011;37436;53.230;6.614;2023-05-07T14:48:04;14.23;;;9.23;;
31692;SDS011;37436;53.230;6.614;2023-05-07T14:50:34;15.20;;;9.93;;
31692;SDS011;37436;53.230;6.614;2023-05-07T14:53:00;11.23;;;9.57;;
31692;SDS011;37436;53.230;6.614;2023-05-07T14:55:26;11.65;;;9.48;;
31692;SDS011;37436;53.230;6.614;2023-05-07T14:57:55;11.40;;;8.88;;
31692;SDS011;37436;53.230;6.614;2023-05-07T15:00:28;14.73;;;9.98;;
31692;SDS011;37436;53.230;6.614;2023-05-07T15:02:56;13.30;;;10.68;;
31692;SDS011;37436;53.230;6.614;2023-05-07T15:05:27;12.15;;;10.30;;
31692;SDS011;37436;53.230;6.614;2023-05-07T15:07:56;13.32;;;9.98;;
31692;SDS011;37436;53.230;6.614;2023-05-07T15:10:23;9.95;;;8.30;;